Time;durP1;ratioP1;P1;durP2;ratioP2;P2;SDS_P1;SDS_P2;PMS_P1;PMS_P2;Temp;Humidity;BMP_temperature;BMP_pressure;BME280_temperature;BME280_humidity;BME280_pressure;Samples;Min_cycle;Max_cycle;Signal;HPM_P1;HPM_P2
2021/06/22 00:00:35;;;;;;;15.68;5.53;;;;;;;25.08;55.86;99822.47;6338546;22;20003;-73
2021/06/22 00:03:01;;;;;;;11.00;5.32;;;;;;;25.05;55.86;99823.41;6338529;22;20085;-73
2021/06/22 00:05:27;;;;;;;13.15;5.75;;;;;;;24.99;55.42;99825.31;6338518;22;20018;-73
2021/06/22 00:07:59;;;;;;;14.73;5.82;;;;;;;24.99;55.60;99816.75;6338761;22;20379;-72
2021/06/22 00:10:30;;;;;;;12.35;5.38;;;;;;;25.02;55.04;99818.66;6338379;22;20002;-73
2021/06/22 00:13:00;;;;;;;11.65;4.80;;;;;;;25.13;54.30;99789.75;6338408;22;20020;-73
2021/06/22 00:15:31;;;;;;;11.90;5.00;;;;;;;25.02;54.60;99790.19;6338432;22;20030;-72
2021/06/22 00:17:57;;;;;;;16.60;5.30;;;;;;;25.10;54.39;99792.78;6338383;22;20418;-73
2021/06/22 00:20:23;;;;;;;19.23;5.72;;;;;;;24.81;56.00;99793.94;6338323;22;20085;-72
2021/06/22 00:22:54;;;;;;;16.00;6.70;;;;;;;24.60;59.73;99781.38;6338314;22;20010;-73
2021/06/22 00:25:22;;;;;;;16.80;5.90;;;;;;;24.59;60.73;99796.09;6334068;22;20010;-72
2021/06/22 00:27:53;;;;;;;16.17;6.40;;;;;;;24.49;60.95;99793.19;6338272;22;20021;-72
2021/06/22 00:30:25;;;;;;;9.85;5.72;;;;;;;24.52;62.10;99768.75;6338173;22;20165;-72
2021/06/22 00:32:54;;;;;;;13.25;6.38;;;;;;;24.52;61.89;99769.53;6338239;22;20042;-72
2021/06/22 00:35:23;;;;;;;15.23;6.03;;;;;;;24.51;62.33;99761.47;6338254;22;20014;-72
2021/06/22 00:37:51;;;;;;;13.25;6.18;;;;;;;24.44;62.72;99751.16;6338210;22;20006;-73
2021/06/22 00:40:19;;;;;;;17.30;6.00;;;;;;;24.38;63.27;99763.63;6338507;22;20419;-74
2021/06/22 00:42:46;;;;;;;14.13;6.43;;;;;;;24.37;62.73;99750.66;6338060;22;20328;-73
2021/06/22 00:45:16;;;;;;;10.73;6.07;;;;;;;24.43;62.25;99755.28;6338479;22;20476;-72
2021/06/22 00:47:42;;;;;;;12.68;5.40;;;;;;;24.44;60.43;99756.84;6338423;22;20007;-74
2021/06/22 00:50:09;;;;;;;7.70;4.93;;;;;;;24.33;59.85;99761.34;6337984;22;20304;-72
2021/06/22 00:52:40;;;;;;;12.98;5.65;;;;;;;24.39;60.61;99757.47;6338070;22;20454;-72
2021/06/22 00:55:11;;;;;;;14.25;5.32;;;;;;;24.42;61.02;99752.91;6338081;22;20007;-73
2021/06/22 00:57:42;;;;;;;10.98;5.47;;;;;;;24.50;61.13;99745.66;6338413;22;20446;-73
2021/06/22 01:00:13;;;;;;;12.55;5.70;;;;;;;24.48;61.59;99751.03;6338052;22;20014;-72
2021/06/22 01:02:38;;;;;;;11.93;5.28;;;;;;;24.39;60.01;99751.78;6337963;22;20010;-72
2021/06/22 01:05:07;;;;;;;13.25;5.82;;;;;;;24.39;59.81;99743.25;6337916;22;20025;-72
2021/06/22 01:07:36;;;;;;;11.30;5.55;;;;;;;24.42;59.10;99744.38;6337905;22;20003;-73
2021/06/22 01:10:03;;;;;;;13.38;5.15;;;;;;;24.50;58.38;99745.66;6339504;22;19999;-72
2021/06/22 01:12:32;;;;;;;11.57;4.57;;;;;;;24.56;57.77;99753.13;6338237;22;20506;-72
2021/06/22 01:15:00;;;;;;;11.70;5.47;;;;;;;24.53;56.75;99754.03;6330635;22;20019;-69
2021/06/22 01:17:31;;;;;;;13.75;4.75;;;;;;;24.46;56.88;99754.34;6337998;22;19999;-70
2021/06/22 01:20:00;;;;;;;9.45;5.38;;;;;;;24.42;56.97;99748.00;6338380;22;20007;-71
2021/06/22 01:22:29;;;;;;;12.30;4.07;;;;;;;24.41;56.23;99751.31;6337689;22;20009;-69
2021/06/22 01:24:57;;;;;;;17.52;6.15;;;;;;;24.42;56.36;99755.75;6337675;22;20010;-70
2021/06/22 01:27:28;;;;;;;8.48;4.45;;;;;;;24.43;56.10;99755.28;6337962;22;19998;-70
2021/06/22 01:29:56;;;;;;;11.98;4.93;;;;;;;24.43;56.12;99760.16;6338590;22;20007;-70
2021/06/22 01:32:25;;;;;;;8.73;4.70;;;;;;;24.52;56.19;99755.31;6338035;22;20041;-70
2021/06/22 01:34:58;;;;;;;10.23;4.18;;;;;;;24.47;56.00;99747.38;6337693;22;20003;-69
2021/06/22 01:37:27;;;;;;;7.40;4.05;;;;;;;24.44;56.24;99751.16;6337911;22;20088;-70
2021/06/22 01:39:58;;;;;;;15.55;5.32;;;;;;;24.45;55.87;99743.41;6338244;22;20076;-70
2021/06/22 01:42:23;;;;;;;14.93;4.72;;;;;;;24.42;56.45;99730.16;6337245;22;20015;-69
2021/06/22 01:44:52;;;;;;;16.55;5.18;;;;;;;24.48;55.93;99734.75;6337344;22;20414;-70
2021/06/22 01:47:18;;;;;;;14.13;4.60;;;;;;;24.53;54.69;99742.66;6337570;22;20007;-70
2021/06/22 01:49:46;;;;;;;11.95;3.95;;;;;;;24.39;54.71;99743.25;6337350;22;20002;-69
2021/06/22 01:52:21;;;;;;;12.15;4.38;;;;;;;24.32;54.50;99749.19;6337492;22;20426;-69
2021/06/22 01:54:46;;;;;;;10.35;3.88;;;;;;;24.28;54.14;99742.84;6338095;22;20007;-69
2021/06/22 01:57:17;;;;;;;12.60;3.83;;;;;;;24.20;54.12;99741.56;6337737;22;20450;-69
2021/06/22 01:59:48;;;;;;;13.13;4.38;;;;;;;24.33;55.38;99738.63;6337675;22;20423;-69
2021/06/22 02:02:14;;;;;;;10.25;4.45;;;;;;;24.26;55.97;99739.69;6339480;22;20034;-71
2021/06/22 02:04:43;;;;;;;11.07;4.20;;;;;;;24.23;56.77;99734.94;6339379;22;20009;-70
2021/06/22 02:07:14;;;;;;;22.08;6.50;;;;;;;24.20;56.74;99724.53;6339352;22;20011;-69
2021/06/22 02:09:40;;;;;;;11.98;5.43;;;;;;;24.19;56.99;99735.09;6339920;22;20010;-69
2021/06/22 02:12:06;;;;;;;7.95;5.00;;;;;;;24.23;56.13;99735.72;6339645;22;20011;-70
2021/06/22 02:14:34;;;;;;;7.78;4.45;;;;;;;24.21;56.16;99723.25;6339845;22;20068;-70
2021/06/22 02:17:05;;;;;;;9.35;4.65;;;;;;;24.16;55.57;99715.34;6340179;22;20339;-71
2021/06/22 02:19:33;;;;;;;12.05;4.10;;;;;;;24.13;54.88;99716.25;6339151;22;19999;-70
2021/06/22 02:22:05;;;;;;;11.43;3.97;;;;;;;24.11;54.25;99707.41;6339191;22;20011;-70
2021/06/22 02:24:40;;;;;;;20.63;5.20;;;;;;;24.08;54.38;99705.53;6339902;22;20059;-69
2021/06/22 02:27:19;;;;;;;19.35;4.53;;;;;;;24.09;54.04;99712.78;6340376;22;20430;-71
2021/06/22 02:29:45;;;;;;;11.70;3.92;;;;;;;24.10;54.37;99703.00;6340643;22;19999;-70
2021/06/22 02:32:10;;;;;;;10.43;4.43;;;;;;;24.10;54.09;99711.53;6339164;22;20312;-71
2021/06/22 02:34:36;;;;;;;12.25;4.22;;;;;;;24.07;53.57;99713.25;6339058;22;20011;-69
2021/06/22 02:37:05;;;;;;;12.98;5.00;;;;;;;24.05;53.88;99710.88;6339369;22;20006;-71
2021/06/22 02:39:36;;;;;;;11.50;4.07;;;;;;;24.03;53.79;99713.41;6339779;22;20085;-70
2021/06/22 02:42:02;;;;;;;10.18;5.22;;;;;;;24.00;53.58;99716.38;6338857;22;20019;-70
2021/06/22 02:44:30;;;;;;;13.07;5.72;;;;;;;24.08;54.11;99716.91;6339695;22;20300;-70
2021/06/22 02:46:58;;;;;;;11.93;4.20;;;;;;;24.19;53.72;99714.41;6338970;22;20003;-69
2021/06/22 02:49:24;;;;;;;15.90;4.25;;;;;;;24.14;52.10;99707.28;6338820;22;20452;-70
2021/06/22 02:51:49;;;;;;;12.60;4.05;;;;;;;23.97;52.77;99706.75;6338745;22;20006;-70
2021/06/22 02:54:17;;;;;;;12.18;3.80;;;;;;;23.84;53.43;99703.19;6339532;22;20007;-71
2021/06/22 02:56:43;;;;;;;15.10;4.97;;;;;;;23.83;53.10;99706.50;6338883;22;20044;-70
2021/06/22 02:59:11;;;;;;;20.75;4.82;;;;;;;23.66;53.03;99691.75;6339588;22;20010;-71
2021/06/22 03:01:43;;;;;;;14.02;4.13;;;;;;;23.85;53.05;99710.44;6338757;22;19998;-70
2021/06/22 03:04:15;;;;;;;13.13;5.25;;;;;;;23.80;52.97;99708.22;6338791;22;20049;-71
2021/06/22 03:06:43;;;;;;;16.40;4.45;;;;;;;23.74;52.93;99693.81;6338762;22;20006;-70
2021/06/22 03:09:11;;;;;;;15.18;4.30;;;;;;;23.76;52.81;99699.84;6338567;22;20007;-70
2021/06/22 03:11:39;;;;;;;14.63;4.05;;;;;;;23.82;52.36;99696.41;6338237;22;20479;-70
2021/06/22 03:14:07;;;;;;;15.18;4.32;;;;;;;23.82;52.18;99702.09;6338239;22;20012;-70
2021/06/22 03:16:33;;;;;;;11.55;4.03;;;;;;;23.95;51.06;99697.09;6340287;22;20010;-70
2021/06/22 03:19:01;;;;;;;17.20;4.63;;;;;;;23.89;51.27;99687.59;6338468;22;20014;-70
2021/06/22 03:21:32;;;;;;;15.52;5.45;;;;;;;23.82;51.44;99687.88;6338539;22;20009;-71
2021/06/22 03:23:58;;;;;;;17.77;6.13;;;;;;;23.82;51.31;99688.69;6338614;22;20036;-70
2021/06/22 03:26:29;;;;;;;22.05;8.80;;;;;;;23.78;51.15;99685.97;6338534;22;20010;-70
2021/06/22 03:28:54;;;;;;;20.45;4.57;;;;;;;23.84;51.02;99683.31;6338439;22;20006;-71
2021/06/22 03:31:23;;;;;;;15.57;5.20;;;;;;;23.94;49.66;99684.94;6338437;22;20011;-70
2021/06/22 03:33:51;;;;;;;19.38;5.65;;;;;;;23.97;50.00;99684.03;6338446;22;20346;-70
2021/06/22 03:36:23;;;;;;;13.75;4.25;;;;;;;23.96;49.99;99685.25;6338448;22;20014;-69
2021/06/22 03:38:51;;;;;;;30.27;6.20;;;;;;;24.02;49.94;99691.13;6338504;22;20063;-69
2021/06/22 03:41:17;;;;;;;21.35;5.07;;;;;;;24.03;49.51;99692.72;6338269;22;20003;-70
2021/06/22 03:43:43;;;;;;;18.33;4.82;;;;;;;24.04;49.64;99695.09;6312489;22;20011;-70
2021/06/22 03:46:10;;;;;;;21.58;5.32;;;;;;;24.15;49.80;99700.34;6312443;22;20018;-70
2021/06/22 03:48:38;;;;;;;13.93;5.18;;;;;;;24.24;49.68;99706.06;6312375;22;20427;-70
2021/06/22 03:51:07;;;;;;;15.15;5.07;;;;;;;24.33;49.47;99713.03;6312832;22;20423;-70
2021/06/22 03:53:32;;;;;;;16.90;7.47;;;;;;;24.36;49.06;99712.13;6312286;22;20006;-72
2021/06/22 03:56:05;;;;;;;21.13;7.13;;;;;;;24.44;48.88;99714.19;6312353;22;20086;-69
2021/06/22 03:58:34;;;;;;;22.02;6.32;;;;;;;24.45;48.59;99712.97;6312664;22;20445;-71
2021/06/22 04:01:00;;;;;;;15.50;4.65;;;;;;;24.50;48.17;99718.03;6312267;22;20021;-71
2021/06/22 04:03:26;;;;;;;17.70;3.85;;;;;;;24.50;47.98;99715.19;6312364;22;20426;-69
2021/06/22 04:05:52;;;;;;;20.00;6.10;;;;;;;24.64;48.38;99730.06;6312121;22;20056;-71
2021/06/22 04:08:21;;;;;;;12.57;5.95;;;;;;;24.70;48.13;99722.47;6311736;22;20015;-71
2021/06/22 04:10:47;;;;;;;16.63;5.18;;;;;;;24.73;47.29;99721.53;6312234;22;20011;-70
2021/06/22 04:13:12;;;;;;;26.35;6.25;;;;;;;24.67;46.88;99717.75;6312986;22;20037;-71
2021/06/22 04:15:40;;;;;;;20.02;5.50;;;;;;;24.73;46.39;99718.72;6312540;22;20093;-70
2021/06/22 04:18:10;;;;;;;18.42;5.13;;;;;;;24.74;46.45;99720.28;6312195;22;20011;-71
2021/06/22 04:20:38;;;;;;;17.98;3.90;;;;;;;24.89;46.34;99732.63;6312193;22;20002;-71
2021/06/22 04:23:05;;;;;;;21.52;3.70;;;;;;;24.99;45.71;99727.75;6312722;22;20007;-71
2021/06/22 04:25:32;;;;;;;16.77;4.00;;;;;;;25.09;45.98;99740.75;6339980;22;20007;-72
2021/06/22 04:28:03;;;;;;;13.20;4.47;;;;;;;25.25;45.65;99733.97;6312637;22;20007;-72
2021/06/22 04:30:32;;;;;;;18.38;4.85;;;;;;;25.47;45.06;99734.56;6311849;22;20090;-71
2021/06/22 04:32:58;;;;;;;12.57;3.85;;;;;;;25.69;44.86;99734.38;6312013;22;20085;-71
2021/06/22 04:35:27;;;;;;;15.88;3.97;;;;;;;25.93;44.35;99736.56;6312423;22;20048;-71
2021/06/22 04:37:53;;;;;;;15.98;4.47;;;;;;;26.16;43.69;99740.78;6312702;22;20085;-72
2021/06/22 04:40:18;;;;;;;17.75;3.53;;;;;;;26.39;43.30;99734.34;6311639;22;20053;-72
2021/06/22 04:42:50;;;;;;;14.18;3.65;;;;;;;26.61;42.98;99740.56;6326126;22;20019;-73
2021/06/22 04:45:18;;;;;;;13.25;4.40;;;;;;;26.84;42.38;99735.34;6337963;22;20002;-72
2021/06/22 04:47:47;;;;;;;11.65;3.88;;;;;;;27.05;41.14;99744.88;6311898;22;20018;-71
2021/06/22 04:50:13;;;;;;;16.83;4.18;;;;;;;27.29;40.68;99737.13;6337720;22;20464;-72
2021/06/22 04:52:41;;;;;;;18.80;5.05;;;;;;;27.44;40.55;99737.16;6337359;22;20014;-71
2021/06/22 04:55:15;;;;;;;13.48;3.55;;;;;;;27.57;40.38;99734.78;6337474;22;20014;-72
2021/06/22 04:57:45;;;;;;;12.13;3.92;;;;;;;27.75;40.23;99738.78;6337816;22;20039;-72
2021/06/22 05:00:12;;;;;;;14.05;4.10;;;;;;;27.86;39.71;99747.56;6338469;22;20419;-73
2021/06/22 05:02:40;;;;;;;14.13;4.10;;;;;;;27.56;42.14;99749.59;6337751;22;20007;-72
2021/06/22 05:05:14;;;;;;;;;;;;;;;27.98;41.44;99752.19;6339518;22;20023;-72
2021/06/22 05:07:43;;;;;;;10.15;3.63;;;;;;;28.01;41.31;99751.19;6336590;22;19909;-72
2021/06/22 05:10:12;;;;;;;18.73;3.72;;;;;;;28.32;41.19;99752.75;6337524;22;20011;-73
2021/06/22 05:12:42;;;;;;;15.88;4.45;;;;;;;28.68;40.44;99755.16;6338741;22;20006;-72
2021/06/22 05:15:11;;;;;;;17.60;3.60;;;;;;;29.00;39.67;99758.22;6337690;22;20040;-72
2021/06/22 05:17:42;;;;;;;19.63;4.85;;;;;;;29.21;38.73;99759.78;6339778;22;20003;-72
2021/06/22 05:20:11;;;;;;;28.27;5.65;;;;;;;29.32;39.01;99773.47;6337789;22;20010;-73
2021/06/22 05:22:37;;;;;;;13.30;3.45;;;;;;;29.57;38.34;99774.06;6338404;22;20381;-72
2021/06/22 05:25:03;;;;;;;15.80;4.60;;;;;;;29.65;39.40;99778.81;6337801;22;20007;-72
2021/06/22 05:27:29;;;;;;;15.52;4.35;;;;;;;29.59;39.75;99774.31;6338041;22;20505;-74
2021/06/22 05:29:58;;;;;;;15.10;3.58;;;;;;;29.87;38.53;99774.59;6337467;22;20034;-72
2021/06/22 05:32:32;;;;;;;20.00;4.57;;;;;;;29.77;39.09;99781.81;6338126;22;20310;-73
2021/06/22 05:35:00;;;;;;;19.42;4.38;;;;;;;29.96;38.89;99789.56;6337617;22;20438;-72
2021/06/22 05:37:31;;;;;;;13.15;3.65;;;;;;;30.22;38.00;99794.53;6338052;22;20014;-72
2021/06/22 05:39:57;;;;;;;14.43;3.88;;;;;;;30.03;38.80;99788.31;6338438;22;20430;-73
2021/06/22 05:42:23;;;;;;;15.60;4.72;;;;;;;30.05;39.00;99796.44;6337373;22;20159;-74
2021/06/22 05:44:51;;;;;;;16.08;4.05;;;;;;;30.32;38.92;99798.00;6337658;22;20450;-72
2021/06/22 05:47:22;;;;;;;17.20;3.95;;;;;;;30.82;37.86;99800.47;6338223;22;20426;-72
2021/06/22 05:49:54;;;;;;;15.32;4.32;;;;;;;30.99;37.41;99804.22;6337528;22;20441;-72
2021/06/22 05:52:22;;;;;;;27.42;4.68;;;;;;;30.61;38.15;99809.19;6337899;22;20013;-71
2021/06/22 05:54:48;;;;;;;22.13;4.35;;;;;;;31.01;37.17;99810.25;6337922;22;20044;-70
2021/06/22 05:57:16;;;;;;;18.88;4.72;;;;;;;30.26;38.47;99807.34;6337284;22;20059;-71
2021/06/22 05:59:42;;;;;;;20.25;5.57;;;;;;;30.76;37.83;99812.72;6336806;22;20036;-70
2021/06/22 06:02:13;;;;;;;26.30;5.07;;;;;;;30.66;35.70;99816.25;6337230;22;20064;-70
2021/06/22 06:04:42;;;;;;;16.20;4.32;;;;;;;31.01;34.65;99816.00;6337346;22;20072;-70
2021/06/22 06:07:08;;;;;;;15.95;4.75;;;;;;;31.03;33.82;99791.19;6337226;22;20426;-71
2021/06/22 06:09:39;;;;;;;18.52;5.07;;;;;;;31.85;33.07;99827.09;6337000;22;20048;-72
2021/06/22 06:12:05;;;;;;;18.42;5.25;;;;;;;32.34;32.65;99828.50;6339228;22;20315;-71
2021/06/22 06:14:31;;;;;;;21.80;5.50;;;;;;;32.79;32.74;99820.63;6337113;22;20033;-71
2021/06/22 06:17:02;;;;;;;19.55;5.25;;;;;;;32.61;32.59;99826.94;6337319;22;20007;-71
2021/06/22 06:19:28;;;;;;;22.92;5.55;;;;;;;32.40;32.80;99828.53;6337312;22;20006;-71
2021/06/22 06:21:54;;;;;;;25.05;5.70;;;;;;;32.62;32.79;99828.50;6337120;22;20007;-71
2021/06/22 06:24:19;;;;;;;18.90;6.40;;;;;;;32.52;33.65;99833.75;6337378;22;20011;-71
2021/06/22 06:27:02;;;;;;;28.90;6.63;;;;;;;32.37;34.19;99832.44;6337165;22;20006;-72
2021/06/22 06:31:58;;;;;;;15.27;5.35;;;;;;;33.14;32.42;99827.16;6348823;22;20007;-72
2021/06/22 06:34:29;;;;;;;17.70;5.43;;;;;;;33.52;32.48;99828.34;6337016;22;20002;-71
2021/06/22 06:36:58;;;;;;;15.82;5.43;;;;;;;33.98;31.72;99832.56;6337168;22;20041;-71
2021/06/22 06:39:29;;;;;;;15.63;5.43;;;;;;;33.63;31.53;99820.41;6336934;22;20383;-71
2021/06/22 06:41:57;;;;;;;21.55;5.30;;;;;;;34.29;30.38;99823.41;6337156;22;20339;-71
2021/06/22 06:44:25;;;;;;;18.30;5.00;;;;;;;34.13;30.47;99828.00;6337024;22;20006;-71
2021/06/22 06:46:53;;;;;;;29.35;7.00;;;;;;;33.99;30.55;99840.69;6336964;22;20017;-72
2021/06/22 06:49:19;;;;;;;22.30;6.10;;;;;;;34.23;30.44;99842.88;6338757;22;20490;-71
2021/06/22 06:51:47;;;;;;;16.08;6.47;;;;;;;34.13;31.38;99845.31;6338362;22;20030;-72
2021/06/22 06:54:13;;;;;;;15.95;5.53;;;;;;;33.94;31.06;99852.28;6339225;22;20319;-70
2021/06/22 06:56:44;;;;;;;14.45;5.50;;;;;;;33.44;32.18;99856.16;6338613;22;20015;-71
2021/06/22 06:59:16;;;;;;;24.48;8.18;;;;;;;33.94;31.02;99850.19;6339187;22;20030;-72
2021/06/22 07:01:41;;;;;;;23.45;7.20;;;;;;;33.97;31.11;99854.88;6339174;22;20007;-73
2021/06/22 07:04:10;;;;;;;27.38;9.80;;;;;;;33.69;31.59;99851.34;6338386;22;20093;-72
2021/06/22 07:06:35;;;;;;;31.10;12.85;;;;;;;33.82;31.59;99848.63;6338653;22;20009;-72
2021/06/22 07:09:04;;;;;;;19.65;8.95;;;;;;;34.44;29.93;99837.50;6338417;22;20007;-73
2021/06/22 07:11:30;;;;;;;32.25;10.85;;;;;;;34.05;31.04;99832.00;6338463;22;20033;-71
2021/06/22 07:13:58;;;;;;;21.40;8.93;;;;;;;34.30;31.05;99836.53;6339533;22;20010;-73
2021/06/22 07:16:26;;;;;;;29.67;9.10;;;;;;;34.47;31.34;99845.09;6338778;22;20007;-72
2021/06/22 07:18:55;;;;;;;27.15;9.18;;;;;;;34.63;31.14;99849.97;6339119;22;20007;-72
2021/06/22 07:21:24;;;;;;;28.42;9.02;;;;;;;34.09;31.72;99847.72;6339155;22;20072;-71
2021/06/22 07:23:52;;;;;;;22.92;6.60;;;;;;;34.45;29.87;99841.19;6339337;22;20072;-72
2021/06/22 07:26:21;;;;;;;32.92;7.82;;;;;;;34.47;30.19;99850.88;6338710;22;20039;-73
2021/06/22 07:28:53;;;;;;;26.05;7.60;;;;;;;35.72;29.40;99857.72;6338984;22;20415;-72
2021/06/22 07:31:22;;;;;;;27.83;7.25;;;;;;;35.63;29.21;99852.31;6338055;22;20002;-73
2021/06/22 07:33:51;;;;;;;21.25;6.63;;;;;;;35.81;28.49;99851.56;6338095;22;20017;-72
2021/06/22 07:36:18;;;;;;;23.70;7.05;;;;;;;35.90;28.45;99845.41;6338459;22;20007;-75
2021/06/22 07:38:46;;;;;;;19.52;6.75;;;;;;;36.27;27.74;99848.81;6339330;22;20006;-71
2021/06/22 07:41:17;;;;;;;25.70;6.13;;;;;;;36.55;26.71;99854.97;6338567;22;20006;-72
2021/06/22 07:43:44;;;;;;;20.45;6.25;;;;;;;37.27;25.50;99852.09;6337970;22;20022;-72
2021/06/22 07:46:15;;;;;;;26.33;5.93;;;;;;;37.24;25.55;99859.00;6338467;22;20019;-72
2021/06/22 07:48:44;;;;;;;21.88;4.50;;;;;;;37.41;24.94;99850.00;6339122;22;20007;-72
2021/06/22 07:51:15;;;;;;;23.75;5.07;;;;;;;37.81;24.62;99853.59;6337494;22;20014;-72
2021/06/22 07:53:43;;;;;;;24.08;5.15;;;;;;;37.89;24.45;99857.44;6336987;22;20007;-73
2021/06/22 07:56:12;;;;;;;18.95;5.68;;;;;;;38.50;24.01;99861.00;6337901;22;20069;-72
2021/06/22 07:58:38;;;;;;;21.48;5.32;;;;;;;38.31;24.43;99859.66;6338338;22;20028;-73
2021/06/22 08:01:03;;;;;;;20.77;6.50;;;;;;;37.53;25.23;99859.25;6338471;22;20007;-72
2021/06/22 08:03:29;;;;;;;19.80;6.38;;;;;;;37.70;24.85;99860.44;6338289;22;20037;-73
2021/06/22 08:05:57;;;;;;;28.63;7.32;;;;;;;38.06;24.48;99862.06;6338156;22;20006;-72
2021/06/22 08:08:26;;;;;;;19.52;6.05;;;;;;;38.30;24.40;99858.91;6338021;22;20441;-72
2021/06/22 08:10:57;;;;;;;17.17;5.43;;;;;;;38.23;24.37;99857.41;6337780;22;20089;-73
2021/06/22 08:13:27;;;;;;;13.68;5.35;;;;;;;39.02;22.88;99844.63;6337972;22;20060;-72
2021/06/22 08:16:02;;;;;;;21.00;6.25;;;;;;;38.05;24.01;99860.50;6313120;22;20355;-72
2021/06/22 08:18:32;;;;;;;24.42;8.23;;;;;;;38.01;24.25;99861.63;6338314;22;20013;-72
2021/06/22 08:21:03;;;;;;;21.10;5.97;;;;;;;36.74;25.89;99857.78;6338045;22;20072;-72
2021/06/22 08:23:29;;;;;;;24.88;7.20;;;;;;;37.14;25.39;99855.78;6338661;22;20018;-72
2021/06/22 08:25:59;;;;;;;20.80;6.85;;;;;;;36.83;25.66;99863.16;6338036;22;20407;-72
2021/06/22 08:28:27;;;;;;;21.10;6.07;;;;;;;37.69;24.50;99858.88;6337872;22;20017;-73
2021/06/22 08:30:56;;;;;;;17.38;5.82;;;;;;;37.90;23.39;99858.97;6337972;22;20421;-72
2021/06/22 08:33:21;;;;;;;22.02;7.20;;;;;;;38.55;23.11;99864.34;6338285;22;20006;-72
2021/06/22 08:35:50;;;;;;;19.83;5.63;;;;;;;38.82;21.68;99865.00;6338107;22;20015;-72
2021/06/22 08:38:18;;;;;;;30.05;7.00;;;;;;;39.28;21.74;99866.94;6339347;22;20010;-71
2021/06/22 08:40:46;;;;;;;17.52;5.80;;;;;;;38.98;21.92;99863.78;6337860;22;20036;-72
2021/06/22 08:43:18;;;;;;;25.08;6.05;;;;;;;37.83;23.19;99864.72;6337394;22;20010;-73
2021/06/22 08:45:50;;;;;;;26.65;6.88;;;;;;;37.88;23.15;99876.19;6339541;22;20031;-71
2021/06/22 08:48:21;;;;;;;19.30;6.68;;;;;;;38.53;22.39;99865.69;6337894;22;20444;-72
2021/06/22 08:50:50;;;;;;;27.77;5.80;;;;;;;37.72;23.25;99880.22;6337913;22;20059;-72
2021/06/22 08:53:16;;;;;;;19.85;5.43;;;;;;;38.37;21.90;99871.94;6337347;22;20550;-73
2021/06/22 08:55:43;;;;;;;23.48;6.50;;;;;;;39.00;21.69;99873.50;6337729;22;20422;-73
2021/06/22 08:58:14;;;;;;;23.52;6.07;;;;;;;38.96;20.73;99878.88;6311915;22;20017;-72
2021/06/22 09:00:43;;;;;;;17.25;5.57;;;;;;;40.04;20.18;99878.19;6338547;22;20006;-72
2021/06/22 09:03:13;;;;;;;16.30;5.47;;;;;;;40.14;19.84;99884.28;6312457;22;20323;-72
2021/06/22 09:05:44;;;;;;;17.27;5.63;;;;;;;38.95;20.63;99882.38;6338407;22;20006;-72
2021/06/22 09:08:20;;;;;;;21.73;6.35;;;;;;;38.31;21.79;99872.06;6337714;22;20003;-72
2021/06/22 09:10:47;;;;;;;22.90;6.55;;;;;;;38.51;20.99;99879.22;6337794;22;19999;-72
2021/06/22 09:13:25;;;;;;;16.27;5.10;;;;;;;39.66;19.36;99886.00;6337800;22;20014;-71
2021/06/22 09:15:55;;;;;;;17.67;5.43;;;;;;;40.49;19.48;99884.75;6338336;22;20085;-73
2021/06/22 09:18:32;;;;;;;25.83;5.82;;;;;;;41.13;17.47;99888.72;6337678;22;20006;-72
2021/06/22 09:21:05;;;;;;;16.20;5.53;;;;;;;41.43;17.54;99891.59;6338323;22;20007;-72
2021/06/22 09:23:33;;;;;;;25.63;5.63;;;;;;;40.98;18.62;99887.34;6339918;22;20006;-73
2021/06/22 09:26:19;;;;;;;23.08;5.45;;;;;;;39.83;19.81;99879.66;6337973;22;20447;-72
2021/06/22 09:28:47;;;;;;;19.45;4.88;;;;;;;39.21;20.85;99887.25;6336119;22;20335;-72
2021/06/22 09:31:19;;;;;;;12.65;5.72;;;;;;;39.95;19.93;99889.59;6337397;22;20002;-72
2021/06/22 09:33:54;;;;;;;19.67;6.40;;;;;;;39.25;21.15;99881.84;6338418;22;20013;-72
2021/06/22 09:36:26;;;;;;;22.95;5.97;;;;;;;38.95;21.45;99870.75;6338341;22;20014;-72
2021/06/22 09:38:58;;;;;;;;;;;;;;;38.95;22.30;99865.69;6339937;22;20010;-71
2021/06/22 09:41:26;;;;;;;20.88;6.65;;;;;;;38.61;22.54;99871.56;6337929;22;19986;-72
2021/06/22 09:44:08;;;;;;;22.70;5.05;;;;;;;37.82;24.23;99878.44;6336989;22;20503;-72
2021/06/22 09:46:51;;;;;;;22.08;5.65;;;;;;;37.64;24.84;99873.50;6339146;22;20319;-71
2021/06/22 09:49:21;;;;;;;16.63;5.45;;;;;;;37.76;24.80;99886.44;6338049;22;20366;-73
2021/06/22 09:52:01;;;;;;;15.63;4.80;;;;;;;38.22;24.48;99881.22;6337808;22;20006;-72
2021/06/22 09:54:44;;;;;;;18.58;6.63;;;;;;;38.82;23.09;99874.50;6337362;22;20094;-73
2021/06/22 09:57:15;;;;;;;20.98;5.57;;;;;;;38.60;22.10;99886.69;6337487;22;20041;-71
2021/06/22 10:00:07;;;;;;;20.58;5.68;;;;;;;38.56;23.12;99880.44;6339173;22;20013;-72
2021/06/22 10:02:53;;;;;;;19.58;5.28;;;;;;;38.88;23.56;99883.84;6337905;22;20067;-73
2021/06/22 10:05:22;;;;;;;23.50;5.22;;;;;;;38.28;23.71;99879.00;6338638;22;20516;-72
2021/06/22 10:07:59;;;;;;;16.27;5.85;;;;;;;38.65;24.01;99872.00;6337293;22;20101;-71
2021/06/22 10:10:40;;;;;;;9.98;5.28;;;;;;;38.75;23.91;99875.22;6336856;22;20011;-71
2021/06/22 10:13:09;;;;;;;15.05;4.65;;;;;;;39.20;23.33;99885.69;6333233;22;20511;-72
2021/06/22 10:15:34;;;;;;;19.38;6.00;;;;;;;38.91;23.91;99879.03;6337726;22;20494;-73
2021/06/22 10:18:00;;;;;;;17.10;4.95;;;;;;;39.16;22.81;99886.03;6337744;22;20096;-73
2021/06/22 10:20:31;;;;;;;20.40;5.43;;;;;;;39.32;22.26;99881.13;6338771;22;20006;-71
2021/06/22 10:23:00;;;;;;;11.50;4.72;;;;;;;39.51;21.77;99880.84;6341430;22;20340;-71
2021/06/22 10:25:28;;;;;;;23.85;5.38;;;;;;;38.91;22.16;99864.50;6339229;22;20025;-72
2021/06/22 10:27:58;;;;;;;16.50;4.90;;;;;;;39.44;22.07;99882.34;6339850;22;20076;-72
2021/06/22 10:30:24;;;;;;;19.42;4.35;;;;;;;38.92;21.88;99872.66;6339753;22;20319;-72
2021/06/22 10:32:52;;;;;;;17.33;4.88;;;;;;;39.17;22.16;99875.16;6339088;22;20017;-72
2021/06/22 10:35:21;;;;;;;14.60;4.85;;;;;;;38.95;21.50;99859.13;6339050;22;20144;-72
2021/06/22 10:38:03;;;;;;;22.13;6.28;;;;;;;38.99;21.78;99853.69;6339538;22;20018;-72
2021/06/22 10:40:31;;;;;;;16.92;4.40;;;;;;;38.66;21.06;99864.06;6338609;22;20017;-72
2021/06/22 10:43:02;;;;;;;16.90;4.47;;;;;;;39.03;20.86;99863.63;6311849;22;20033;-72
2021/06/22 10:45:28;;;;;;;22.63;5.53;;;;;;;38.63;20.08;99844.88;6338784;22;20006;-72
2021/06/22 10:47:59;;;;;;;15.88;4.70;;;;;;;38.28;20.45;99847.03;6340286;22;20003;-72
2021/06/22 10:50:30;;;;;;;15.93;4.53;;;;;;;38.51;19.97;99850.97;6338925;22;20003;-71
2021/06/22 10:53:06;;;;;;;12.70;4.07;;;;;;;38.26;20.43;99818.53;6340454;22;20326;-71
2021/06/22 10:55:36;;;;;;;20.05;5.10;;;;;;;38.08;20.89;99841.94;6339050;22;20045;-73
2021/06/22 10:58:05;;;;;;;18.02;4.45;;;;;;;38.19;21.05;99847.47;6339819;22;20007;-72
2021/06/22 11:00:57;;;;;;;15.27;4.88;;;;;;;37.96;21.17;99844.34;6338354;22;20006;-72
2021/06/22 11:03:34;;;;;;;22.42;5.18;;;;;;;38.15;21.21;99841.28;6338835;22;20426;-72
2021/06/22 11:06:19;;;;;;;15.00;4.43;;;;;;;38.27;20.70;99846.22;6340510;22;20014;-72
2021/06/22 11:08:47;;;;;;;18.75;4.63;;;;;;;38.27;20.30;99843.31;6339503;22;20007;-74
2021/06/22 11:11:15;;;;;;;17.55;4.10;;;;;;;38.31;19.49;99831.41;6338938;22;20006;-71
2021/06/22 11:13:44;;;;;;;31.35;5.55;;;;;;;38.53;20.38;99825.00;6339400;22;20003;-75
2021/06/22 11:16:15;;;;;;;14.02;4.35;;;;;;;38.57;20.06;99829.66;6338607;22;20057;-72
2021/06/22 11:18:53;;;;;;;20.92;5.57;;;;;;;38.72;19.99;99835.63;6339782;22;20061;-72
2021/06/22 11:21:22;;;;;;;15.55;4.53;;;;;;;38.91;19.13;99836.19;6338786;22;20087;-72
2021/06/22 11:24:15;;;;;;;14.13;4.10;;;;;;;38.40;20.61;99833.78;6338748;22;20011;-71
2021/06/22 11:26:59;;;;;;;20.08;5.28;;;;;;;38.32;20.40;99835.06;6338717;22;20006;-72
2021/06/22 11:29:45;;;;;;;17.17;4.18;;;;;;;39.07;18.90;99836.31;6338611;22;20002;-72
2021/06/22 11:32:26;;;;;;;18.30;5.15;;;;;;;38.95;19.65;99830.03;6338669;22;20011;-72
2021/06/22 11:34:54;;;;;;;25.58;4.82;;;;;;;38.52;18.17;99828.50;6312827;22;20017;-71
2021/06/22 11:37:22;;;;;;;17.13;3.88;;;;;;;39.12;18.06;99826.66;6338675;22;20006;-71
2021/06/22 11:40:02;;;;;;;12.43;4.70;;;;;;;38.91;17.73;99826.69;6338733;22;20007;-72